sensor_id;sensor_type;location;lat;lon;timestamp;temperature;humidity
997;DHT22;487;50.126;8.698;2023-11-21T00:00:58;10.80;99.90
997;DHT22;487;50.126;8.698;2023-11-21T00:03:28;10.80;99.90
997;DHT22;487;50.126;8.698;2023-11-21T00:05:57;10.80;99.90
997;DHT22;487;50.126;8.698;2023-11-21T00:08:25;10.90;99.90
997;DHT22;487;50.126;8.698;2023-11-21T00:10:54;10.90;99.90
997;DHT22;487;50.126;8.698;2023-11-21T00:13:22;10.90;99.90
997;DHT22;487;50.126;8.698;2023-11-21T00:15:50;10.90;99.90
997;DHT22;487;50.126;8.698;2023-11-21T00:18:18;10.90;99.90
997;DHT22;487;50.126;8.698;2023-11-21T00:20:46;10.80;99.90
997;DHT22;487;50.126;8.698;2023-11-21T00:23:15;10.80;99.90
997;DHT22;487;50.126;8.698;2023-11-21T00:25:44;10.90;99.90
997;DHT22;487;50.126;8.698;2023-11-21T00:28:12;10.90;99.90
997;DHT22;487;50.126;8.698;2023-11-21T00:30:40;11.00;99.90
997;DHT22;487;50.126;8.698;2023-11-21T00:33:08;11.00;99.90
997;DHT22;487;50.126;8.698;2023-11-21T00:35:36;11.00;99.90
997;DHT22;487;50.126;8.698;2023-11-21T00:38:04;11.00;99.90
997;DHT22;487;50.126;8.698;2023-11-21T00:40:32;10.90;99.90
997;DHT22;487;50.126;8.698;2023-11-21T00:43:00;10.90;99.90
997;DHT22;487;50.126;8.698;2023-11-21T00:45:30;11.00;99.90
997;DHT22;487;50.126;8.698;2023-11-21T00:47:58;10.90;99.90
997;DHT22;487;50.126;8.698;2023-11-21T00:50:26;11.00;99.90
997;DHT22;487;50.126;8.698;2023-11-21T00:52:54;11.00;99.90
997;DHT22;487;50.126;8.698;2023-11-21T00:55:22;11.00;99.90
997;DHT22;487;50.126;8.698;2023-11-21T00:57:51;11.00;99.90
997;DHT22;487;50.126;8.698;2023-11-21T05:02:33;11.00;99.90
997;DHT22;487;50.126;8.698;2023-11-21T05:05:02;10.80;99.90
997;DHT22;487;50.126;8.698;2023-11-21T05:07:32;10.80;99.90
997;DHT22;487;50.126;8.698;2023-11-21T05:10:02;10.70;1.00
997;DHT22;487;50.126;8.698;2023-11-21T05:12:32;10.70;1.00
997;DHT22;487;50.126;8.698;2023-11-21T05:15:01;10.70;1.00
997;DHT22;487;50.126;8.698;2023-11-21T05:17:31;10.70;1.00
997;DHT22;487;50.126;8.698;2023-11-21T05:20:00;10.70;1.00
997;DHT22;487;50.126;8.698;2023-11-21T05:22:30;10.70;1.00
997;DHT22;487;50.126;8.698;2023-11-21T05:24:58;10.70;1.00
997;DHT22;487;50.126;8.698;2023-11-21T05:27:26;10.70;1.00
997;DHT22;487;50.126;8.698;2023-11-21T05:29:54;10.80;1.00
997;DHT22;487;50.126;8.698;2023-11-21T05:32:22;10.80;1.00
997;DHT22;487;50.126;8.698;2023-11-21T05:34:50;10.80;1.00
997;DHT22;487;50.126;8.698;2023-11-21T05:37:19;10.70;1.00
997;DHT22;487;50.126;8.698;2023-11-21T05:39:47;10.70;1.00
997;DHT22;487;50.126;8.698;2023-11-21T05:42:15;10.70;1.00
997;DHT22;487;50.126;8.698;2023-11-21T05:44:43;10.60;1.00
997;DHT22;487;50.126;8.698;2023-11-21T05:47:11;10.60;1.00
997;DHT22;487;50.126;8.698;2023-11-21T05:49:40;10.60;1.00
997;DHT22;487;50.126;8.698;2023-11-21T05:52:08;10.60;1.00
997;DHT22;487;50.126;8.698;2023-11-21T05:57:06;10.60;1.00
997;DHT22;487;50.126;8.698;2023-11-21T05:59:35;10.60;1.00
997;DHT22;487;50.126;8.698;2023-11-21T06:02:03;10.60;1.00
997;DHT22;487;50.126;8.698;2023-11-21T06:04:31;10.60;1.00
997;DHT22;487;50.126;8.698;2023-11-21T06:06:59;10.50;1.00
997;DHT22;487;50.126;8.698;2023-11-21T06:09:28;10.50;1.00
997;DHT22;487;50.126;8.698;2023-11-21T06:11:58;10.50;1.00
997;DHT22;487;50.126;8.698;2023-11-21T06:14:26;10.40;1.00
997;DHT22;487;50.126;8.698;2023-11-21T06:16:54;10.50;1.00
997;DHT22;487;50.126;8.698;2023-11-21T06:19:23;10.50;1.00
997;DHT22;487;50.126;8.698;2023-11-21T06:21:51;10.50;1.00
997;DHT22;487;50.126;8.698;2023-11-21T06:24:19;10.50;1.00
997;DHT22;487;50.126;8.698;2023-11-21T06:26:47;10.50;1.00
997;DHT22;487;50.126;8.698;2023-11-21T06:29:17;10.50;1.00
997;DHT22;487;50.126;8.698;2023-11-21T06:31:45;10.50;1.00
997;DHT22;487;50.126;8.698;2023-11-21T06:34:13;10.50;1.00
997;DHT22;487;50.126;8.698;2023-11-21T06:39:09;10.50;1.00
997;DHT22;487;50.126;8.698;2023-11-21T06:41:36;10.50;1.00
997;DHT22;487;50.126;8.698;2023-11-21T06:46:36;10.30;1.00
997;DHT22;487;50.126;8.698;2023-11-21T06:51:34;10.20;1.00
997;DHT22;487;50.126;8.698;2023-11-21T06:54:02;10.30;1.00
997;DHT22;487;50.126;8.698;2023-11-21T06:56:30;10.30;1.00
997;DHT22;487;50.126;8.698;2023-11-21T06:58:58;10.30;1.00
997;DHT22;487;50.126;8.698;2023-11-21T07:01:25;10.20;1.00
997;DHT22;487;50.126;8.698;2023-11-21T07:03:55;10.30;1.00
997;DHT22;487;50.126;8.698;2023-11-21T07:06:23;10.20;1.00
997;DHT22;487;50.126;8.698;2023-11-21T07:08:51;10.10;1.00
997;DHT22;487;50.126;8.698;2023-11-21T07:16:16;10.20;1.00
997;DHT22;487;50.126;8.698;2023-11-21T07:18:45;10.10;1.00
997;DHT22;487;50.126;8.698;2023-11-21T07:21:14;10.10;1.00
997;DHT22;487;50.126;8.698;2023-11-21T07:23:43;10.10;1.00
997;DHT22;487;50.126;8.698;2023-11-21T07:26:10;10.00;1.00
997;DHT22;487;50.126;8.698;2023-11-21T07:28:39;10.10;1.00
997;DHT22;487;50.126;8.698;2023-11-21T07:31:06;10.10;99.90
997;DHT22;487;50.126;8.698;2023-11-21T07:33:34;10.00;1.00
997;DHT22;487;50.126;8.698;2023-11-21T07:36:02;10.00;1.00
997;DHT22;487;50.126;8.698;2023-11-21T07:38:32;10.00;1.00
997;DHT22;487;50.126;8.698;2023-11-21T07:41:00;10.10;1.00
997;DHT22;487;50.126;8.698;2023-11-21T07:43:28;10.10;1.00
997;DHT22;487;50.126;8.698;2023-11-21T07:46:01;10.10;99.90
997;DHT22;487;50.126;8.698;2023-11-21T07:48:30;10.10;99.90
997;DHT22;487;50.126;8.698;2023-11-21T07:50:58;10.10;99.90
997;DHT22;487;50.126;8.698;2023-11-21T07:53:26;9.90;99.90
997;DHT22;487;50.126;8.698;2023-11-21T07:55:58;10.10;99.90
997;DHT22;487;50.126;8.698;2023-11-21T07:58:26;10.00;99.90
997;DHT22;487;50.126;8.698;2023-11-21T08:00:54;10.10;99.90
997;DHT22;487;50.126;8.698;2023-11-21T08:03:22;10.00;99.90
997;DHT22;487;50.126;8.698;2023-11-21T08:05:50;10.10;99.90
997;DHT22;487;50.126;8.698;2023-11-21T08:08:18;10.10;99.90
997;DHT22;487;50.126;8.698;2023-11-21T08:10:46;10.10;99.90
997;DHT22;487;50.126;8.698;2023-11-21T08:13:24;10.10;99.90
997;DHT22;487;50.126;8.698;2023-11-21T08:18:25;10.10;99.90
997;DHT22;487;50.126;8.698;2023-11-21T08:20:53;10.10;99.90
997;DHT22;487;50.126;8.698;2023-11-21T08:23:22;10.00;99.90
997;DHT22;487;50.126;8.698;2023-11-21T08:25:52;10.10;99.90
997;DHT22;487;50.126;8.698;2023-11-21T08:28:21;10.10;99.90
997;DHT22;487;50.126;8.698;2023-11-21T08:30:51;10.10;99.90
997;DHT22;487;50.126;8.698;2023-11-21T08:33:19;10.10;99.90
997;DHT22;487;50.126;8.698;2023-11-21T08:35:47;10.10;99.90
997;DHT22;487;50.126;8.698;2023-11-21T08:38:15;10.10;99.90
997;DHT22;487;50.126;8.698;2023-11-21T08:40:44;10.10;99.90
997;DHT22;487;50.126;8.698;2023-11-21T08:43:12;10.10;99.90
997;DHT22;487;50.126;8.698;2023-11-21T08:45:41;10.10;99.90
997;DHT22;487;50.126;8.698;2023-11-21T08:48:10;10.10;99.90
997;DHT22;487;50.126;8.698;2023-11-21T08:50:38;10.20;99.90
997;DHT22;487;50.126;8.698;2023-11-21T08:53:06;10.20;99.90
997;DHT22;487;50.126;8.698;2023-11-21T08:55:34;10.10;99.90
997;DHT22;487;50.126;8.698;2023-11-21T08:58:04;10.20;99.90
997;DHT22;487;50.126;8.698;2023-11-21T09:00:33;10.20;99.90
997;DHT22;487;50.126;8.698;2023-11-21T09:05:31;10.30;99.90
997;DHT22;487;50.126;8.698;2023-11-21T09:07:59;10.30;99.90
997;DHT22;487;50.126;8.698;2023-11-21T09:10:27;10.40;99.90
997;DHT22;487;50.126;8.698;2023-11-21T09:12:55;10.40;99.90
997;DHT22;487;50.126;8.698;2023-11-21T09:15:23;10.40;99.90
997;DHT22;487;50.126;8.698;2023-11-21T09:20:20;10.40;99.90
997;DHT22;487;50.126;8.698;2023-11-21T09:22:50;10.30;99.90
997;DHT22;487;50.126;8.698;2023-11-21T09:25:18;10.30;99.90
997;DHT22;487;50.126;8.698;2023-11-21T09:27:47;10.20;99.90
997;DHT22;487;50.126;8.698;2023-11-21T09:30:16;10.30;99.90
997;DHT22;487;50.126;8.698;2023-11-21T09:32:44;10.30;99.90
997;DHT22;487;50.126;8.698;2023-11-21T09:35:13;10.40;99.90
997;DHT22;487;50.126;8.698;2023-11-21T09:37:43;10.40;99.90
997;DHT22;487;50.126;8.698;2023-11-21T09:40:13;10.20;99.90
997;DHT22;487;50.126;8.698;2023-11-21T09:42:48;10.40;99.90
997;DHT22;487;50.126;8.698;2023-11-21T09:45:21;10.40;99.90
997;DHT22;487;50.126;8.698;2023-11-21T09:47:52;10.40;99.90
997;DHT22;487;50.126;8.698;2023-11-21T09:50:21;10.40;99.90
997;DHT22;487;50.126;8.698;2023-11-21T09:52:54;10.30;99.90
997;DHT22;487;50.126;8.698;2023-11-21T09:55:26;10.40;99.90
997;DHT22;487;50.126;8.698;2023-11-21T09:57:56;10.50;99.90
997;DHT22;487;50.126;8.698;2023-11-21T10:00:24;10.60;99.90
997;DHT22;487;50.126;8.698;2023-11-21T10:02:54;10.60;99.90
997;DHT22;487;50.126;8.698;2023-11-21T10:05:23;10.70;99.90
997;DHT22;487;50.126;8.698;2023-11-21T10:07:56;10.70;99.90
997;DHT22;487;50.126;8.698;2023-11-21T10:10:27;10.80;99.90
997;DHT22;487;50.126;8.698;2023-11-21T10:12:57;10.80;99.90
997;DHT22;487;50.126;8.698;2023-11-21T10:15:29;10.80;99.90
997;DHT22;487;50.126;8.698;2023-11-21T10:18:03;10.80;99.90
997;DHT22;487;50.126;8.698;2023-11-21T10:20:33;10.90;99.90
997;DHT22;487;50.126;8.698;2023-11-21T10:23:01;10.90;99.90
997;DHT22;487;50.126;8.698;2023-11-21T10:25:31;10.60;99.90
997;DHT22;487;50.126;8.698;2023-11-21T10:28:01;11.00;99.90
997;DHT22;487;50.126;8.698;2023-11-21T10:30:35;11.10;99.90
997;DHT22;487;50.126;8.698;2023-11-21T10:33:04;11.10;99.90
997;DHT22;487;50.126;8.698;2023-11-21T10:35:39;11.10;99.90
997;DHT22;487;50.126;8.698;2023-11-21T10:38:13;11.10;99.90
997;DHT22;487;50.126;8.698;2023-11-21T10:40:43;11.20;99.90
997;DHT22;487;50.126;8.698;2023-11-21T10:43:14;11.20;99.90
997;DHT22;487;50.126;8.698;2023-11-21T10:45:43;11.20;99.90
997;DHT22;487;50.126;8.698;2023-11-21T10:48:13;11.30;99.90
997;DHT22;487;50.126;8.698;2023-11-21T10:50:43;11.40;99.90
997;DHT22;487;50.126;8.698;2023-11-21T10:53:11;11.30;99.90
997;DHT22;487;50.126;8.698;2023-11-21T10:55:41;11.50;99.90
997;DHT22;487;50.126;8.698;2023-11-21T10:58:13;11.60;99.90
997;DHT22;487;50.126;8.698;2023-11-21T11:00:41;11.70;99.90
997;DHT22;487;50.126;8.698;2023-11-21T11:03:12;11.70;99.90
997;DHT22;487;50.126;8.698;2023-11-21T11:05:44;11.80;99.90
997;DHT22;487;50.126;8.698;2023-11-21T11:08:21;11.90;99.90
997;DHT22;487;50.126;8.698;2023-11-21T11:10:55;11.90;99.90
997;DHT22;487;50.126;8.698;2023-11-21T11:13:25;11.90;99.90
997;DHT22;487;50.126;8.698;2023-11-21T11:15:58;12.00;99.90
997;DHT22;487;50.126;8.698;2023-11-21T11:18:27;12.00;99.90
997;DHT22;487;50.126;8.698;2023-11-21T11:21:01;11.90;99.90
997;DHT22;487;50.126;8.698;2023-11-21T11:23:46;11.90;99.90
997;DHT22;487;50.126;8.698;2023-11-21T11:26:30;11.90;99.90
997;DHT22;487;50.126;8.698;2023-11-21T11:29:07;11.90;99.90
997;DHT22;487;50.126;8.698;2023-11-21T11:31:45;11.90;99.90
997;DHT22;487;50.126;8.698;2023-11-21T11:34:23;11.90;99.90
997;DHT22;487;50.126;8.698;2023-11-21T11:36:56;11.90;99.90
997;DHT22;487;50.126;8.698;2023-11-21T11:39:27;11.90;99.90
997;DHT22;487;50.126;8.698;2023-11-21T11:41:58;11.90;99.90
997;DHT22;487;50.126;8.698;2023-11-21T11:44:50;11.90;99.90
997;DHT22;487;50.126;8.698;2023-11-21T11:47:22;11.80;99.90
997;DHT22;487;50.126;8.698;2023-11-21T11:50:05;11.90;99.90
997;DHT22;487;50.126;8.698;2023-11-21T11:52:38;11.70;99.90
997;DHT22;487;50.126;8.698;2023-11-21T11:55:09;11.60;99.90
997;DHT22;487;50.126;8.698;2023-11-21T11:57:42;11.60;99.90
997;DHT22;487;50.126;8.698;2023-11-21T12:00:15;11.60;99.90
997;DHT22;487;50.126;8.698;2023-11-21T12:02:46;11.60;99.90
997;DHT22;487;50.126;8.698;2023-11-21T12:05:15;11.50;99.90
997;DHT22;487;50.126;8.698;2023-11-21T12:07:46;11.50;99.90
997;DHT22;487;50.126;8.698;2023-11-21T12:10:17;11.50;99.90
997;DHT22;487;50.126;8.698;2023-11-21T12:12:48;11.50;99.90
997;DHT22;487;50.126;8.698;2023-11-21T12:15:16;11.60;99.90
997;DHT22;487;50.126;8.698;2023-11-21T12:17:45;11.60;99.90
997;DHT22;487;50.126;8.698;2023-11-21T12:22:43;11.60;99.90
997;DHT22;487;50.126;8.698;2023-11-21T12:25:11;11.70;99.90
997;DHT22;487;50.126;8.698;2023-11-21T12:27:43;11.70;99.90
997;DHT22;487;50.126;8.698;2023-11-21T12:32:43;11.70;99.90
997;DHT22;487;50.126;8.698;2023-11-21T12:35:12;11.50;99.90
997;DHT22;487;50.126;8.698;2023-11-21T12:37:41;11.40;99.90
997;DHT22;487;50.126;8.698;2023-11-21T12:40:11;11.40;99.90
997;DHT22;487;50.126;8.698;2023-11-21T12:42:41;11.40;99.90
997;DHT22;487;50.126;8.698;2023-11-21T12:47:50;11.50;99.90
997;DHT22;487;50.126;8.698;2023-11-21T12:50:19;11.50;99.90
997;DHT22;487;50.126;8.698;2023-11-21T12:52:51;11.50;99.90
997;DHT22;487;50.126;8.698;2023-11-21T12:55:21;11.60;99.90
997;DHT22;487;50.126;8.698;2023-11-21T12:57:50;11.50;99.90
997;DHT22;487;50.126;8.698;2023-11-21T13:00:31;11.50;99.90
997;DHT22;487;50.126;8.698;2023-11-21T13:03:00;11.50;99.90
997;DHT22;487;50.126;8.698;2023-11-21T13:05:29;11.60;99.90
997;DHT22;487;50.126;8.698;2023-11-21T13:07:59;11.60;99.90
997;DHT22;487;50.126;8.698;2023-11-21T13:10:30;11.60;99.90
997;DHT22;487;50.126;8.698;2023-11-21T13:12:59;11.70;99.90
997;DHT22;487;50.126;8.698;2023-11-21T13:15:29;11.60;99.90
997;DHT22;487;50.126;8.698;2023-11-21T13:17:58;11.70;99.90
997;DHT22;487;50.126;8.698;2023-11-21T13:20:26;11.60;99.90
997;DHT22;487;50.126;8.698;2023-11-21T13:22:55;11.60;99.90
997;DHT22;487;50.126;8.698;2023-11-21T13:25:25;11.60;99.90
997;DHT22;487;50.126;8.698;2023-11-21T13:27:54;11.60;99.90
997;DHT22;487;50.126;8.698;2023-11-21T13:30:24;11.60;99.90
997;DHT22;487;50.126;8.698;2023-11-21T13:32:55;11.60;99.90
997;DHT22;487;50.126;8.698;2023-11-21T13:35:28;11.60;99.90
997;DHT22;487;50.126;8.698;2023-11-21T13:38:04;11.60;99.90
997;DHT22;487;50.126;8.698;2023-11-21T13:40:34;11.60;99.90
997;DHT22;487;50.126;8.698;2023-11-21T13:43:09;11.60;99.90
997;DHT22;487;50.126;8.698;2023-11-21T13:45:37;11.60;99.90
997;DHT22;487;50.126;8.698;2023-11-21T13:48:10;11.60;99.90
997;DHT22;487;50.126;8.698;2023-11-21T13:50:40;11.60;99.90
997;DHT22;487;50.126;8.698;2023-11-21T13:53:15;13.00;99.90
997;DHT22;487;50.126;8.698;2023-11-21T13:55:48;11.60;99.90
997;DHT22;487;50.126;8.698;2023-11-21T13:58:17;11.50;99.90
997;DHT22;487;50.126;8.698;2023-11-21T14:00:51;11.50;99.90
997;DHT22;487;50.126;8.698;2023-11-21T14:03:24;11.50;99.90
997;DHT22;487;50.126;8.698;2023-11-21T14:06:05;11.40;99.90
997;DHT22;487;50.126;8.698;2023-11-21T14:08:40;11.40;99.90
997;DHT22;487;50.126;8.698;2023-11-21T14:11:09;11.50;99.90
997;DHT22;487;50.126;8.698;2023-11-21T14:13:40;11.50;99.90
997;DHT22;487;50.126;8.698;2023-11-21T14:16:13;11.50;99.90
997;DHT22;487;50.126;8.698;2023-11-21T14:18:42;11.40;99.90
997;DHT22;487;50.126;8.698;2023-11-21T14:21:19;11.40;99.90
997;DHT22;487;50.126;8.698;2023-11-21T14:23:48;11.40;99.90
997;DHT22;487;50.126;8.698;2023-11-21T14:26:16;11.40;99.90
997;DHT22;487;50.126;8.698;2023-11-21T14:28:44;11.40;99.90
997;DHT22;487;50.126;8.698;2023-11-21T14:31:14;11.30;99.90
997;DHT22;487;50.126;8.698;2023-11-21T14:33:45;11.30;99.90
997;DHT22;487;50.126;8.698;2023-11-21T14:36:13;11.30;99.90
997;DHT22;487;50.126;8.698;2023-11-21T14:38:43;11.30;99.90
997;DHT22;487;50.126;8.698;2023-11-21T14:41:11;11.30;99.90
997;DHT22;487;50.126;8.698;2023-11-21T14:43:41;11.20;99.90
997;DHT22;487;50.126;8.698;2023-11-21T14:46:09;11.20;99.90
997;DHT22;487;50.126;8.698;2023-11-21T14:48:41;11.30;99.90
997;DHT22;487;50.126;8.698;2023-11-21T14:53:57;11.30;99.90
997;DHT22;487;50.126;8.698;2023-11-21T14:56:33;11.20;99.90
997;DHT22;487;50.126;8.698;2023-11-21T14:59:01;11.20;99.90
997;DHT22;487;50.126;8.698;2023-11-21T15:01:35;11.20;99.90
997;DHT22;487;50.126;8.698;2023-11-21T15:04:13;11.20;99.90
997;DHT22;487;50.126;8.698;2023-11-21T15:06:48;11.20;99.90
997;DHT22;487;50.126;8.698;2023-11-21T15:09:19;11.20;99.90
997;DHT22;487;50.126;8.698;2023-11-21T15:12:03;11.10;99.90
997;DHT22;487;50.126;8.698;2023-11-21T15:14:42;11.10;99.90
997;DHT22;487;50.126;8.698;2023-11-21T15:19:46;11.10;99.90
997;DHT22;487;50.126;8.698;2023-11-21T15:22:15;11.10;99.90
997;DHT22;487;50.126;8.698;2023-11-21T15:24:43;11.10;99.90
997;DHT22;487;50.126;8.698;2023-11-21T15:27:13;11.10;99.90
997;DHT22;487;50.126;8.698;2023-11-21T15:29:42;11.10;99.90
997;DHT22;487;50.126;8.698;2023-11-21T15:32:10;11.10;99.90
997;DHT22;487;50.126;8.698;2023-11-21T15:34:38;11.10;99.90
997;DHT22;487;50.126;8.698;2023-11-21T15:37:08;11.10;99.90
997;DHT22;487;50.126;8.698;2023-11-21T15:39:40;11.10;99.90
997;DHT22;487;50.126;8.698;2023-11-21T15:42:08;11.10;99.90
997;DHT22;487;50.126;8.698;2023-11-21T15:47:05;11.00;99.90
997;DHT22;487;50.126;8.698;2023-11-21T15:52:05;11.10;99.90
997;DHT22;487;50.126;8.698;2023-11-21T15:54:37;11.10;99.90
997;DHT22;487;50.126;8.698;2023-11-21T15:57:08;11.20;99.90
997;DHT22;487;50.126;8.698;2023-11-21T15:59:39;11.20;99.90
997;DHT22;487;50.126;8.698;2023-11-21T16:02:08;11.20;99.90
997;DHT22;487;50.126;8.698;2023-11-21T16:04:37;11.20;99.90
997;DHT22;487;50.126;8.698;2023-11-21T16:07:05;11.60;99.90
997;DHT22;487;50.126;8.698;2023-11-21T16:09:33;11.20;99.90
997;DHT22;487;50.126;8.698;2023-11-21T16:12:03;11.30;99.90
997;DHT22;487;50.126;8.698;2023-11-21T16:14:34;11.30;99.90
997;DHT22;487;50.126;8.698;2023-11-21T16:17:05;11.30;99.90
997;DHT22;487;50.126;8.698;2023-11-21T16:19:34;11.40;99.90
997;DHT22;487;50.126;8.698;2023-11-21T16:22:02;11.40;99.90
997;DHT22;487;50.126;8.698;2023-11-21T16:24:30;11.40;99.90
997;DHT22;487;50.126;8.698;2023-11-21T16:27:00;11.40;99.90
997;DHT22;487;50.126;8.698;2023-11-21T16:29:28;11.40;99.90
997;DHT22;487;50.126;8.698;2023-11-21T16:31:59;11.40;99.90
997;DHT22;487;50.126;8.698;2023-11-21T16:34:28;11.40;99.90
997;DHT22;487;50.126;8.698;2023-11-21T16:36:55;11.40;99.90
997;DHT22;487;50.126;8.698;2023-11-21T16:39:23;11.40;99.90
997;DHT22;487;50.126;8.698;2023-11-21T16:41:51;11.40;99.90
997;DHT22;487;50.126;8.698;2023-11-21T16:44:20;11.40;99.90
997;DHT22;487;50.126;8.698;2023-11-21T16:46:50;11.30;99.90
997;DHT22;487;50.126;8.698;2023-11-21T16:49:22;11.30;99.90
997;DHT22;487;50.126;8.698;2023-11-21T16:51:50;11.30;99.90
997;DHT22;487;50.126;8.698;2023-11-21T16:54:18;11.30;99.90
997;DHT22;487;50.126;8.698;2023-11-21T16:56:46;11.30;99.90
997;DHT22;487;50.126;8.698;2023-11-21T16:59:14;11.30;99.90
997;DHT22;487;50.126;8.698;2023-11-21T17:01:42;11.30;99.90
997;DHT22;487;50.126;8.698;2023-11-21T17:04:11;11.40;99.90
997;DHT22;487;50.126;8.698;2023-11-21T17:06:43;11.40;99.90
997;DHT22;487;50.126;8.698;2023-11-21T17:09:11;11.30;99.90
997;DHT22;487;50.126;8.698;2023-11-21T17:11:41;11.20;99.90
997;DHT22;487;50.126;8.698;2023-11-21T17:14:12;11.10;99.90
997;DHT22;487;50.126;8.698;2023-11-21T17:16:40;11.00;99.90
997;DHT22;487;50.126;8.698;2023-11-21T17:19:08;11.00;99.90
997;DHT22;487;50.126;8.698;2023-11-21T17:21:36;10.90;99.90
997;DHT22;487;50.126;8.698;2023-11-21T17:24:06;10.90;99.90
997;DHT22;487;50.126;8.698;2023-11-21T17:26:36;10.90;99.90
997;DHT22;487;50.126;8.698;2023-11-21T17:29:04;10.90;99.90
997;DHT22;487;50.126;8.698;2023-11-21T17:31:33;10.90;99.90
997;DHT22;487;50.126;8.698;2023-11-21T17:34:01;11.00;99.90
997;DHT22;487;50.126;8.698;2023-11-21T17:36:29;11.00;99.90
997;DHT22;487;50.126;8.698;2023-11-21T17:38:57;11.00;99.90
997;DHT22;487;50.126;8.698;2023-11-21T17:41:26;11.00;99.90
997;DHT22;487;50.126;8.698;2023-11-21T17:43:54;11.00;99.90
997;DHT22;487;50.126;8.698;2023-11-21T17:46:23;11.00;99.90
997;DHT22;487;50.126;8.698;2023-11-21T17:48:51;11.00;99.90
997;DHT22;487;50.126;8.698;2023-11-21T17:51:19;11.00;99.90
997;DHT22;487;50.126;8.698;2023-11-21T17:56:17;10.90;99.90
997;DHT22;487;50.126;8.698;2023-11-21T18:01:20;10.90;99.90
997;DHT22;487;50.126;8.698;2023-11-21T18:03:48;11.50;99.90
997;DHT22;487;50.126;8.698;2023-11-21T18:06:16;10.90;99.90
997;DHT22;487;50.126;8.698;2023-11-21T18:08:44;10.90;99.90
997;DHT22;487;50.126;8.698;2023-11-21T18:11:12;10.90;99.90
997;DHT22;487;50.126;8.698;2023-11-21T18:13:40;10.90;99.90
997;DHT22;487;50.126;8.698;2023-11-21T18:16:10;10.90;99.90
997;DHT22;487;50.126;8.698;2023-11-21T18:18:37;10.80;99.90
997;DHT22;487;50.126;8.698;2023-11-21T18:21:05;10.80;99.90
997;DHT22;487;50.126;8.698;2023-11-21T18:26:01;10.70;99.90
997;DHT22;487;50.126;8.698;2023-11-21T18:28:29;10.50;99.90
997;DHT22;487;50.126;8.698;2023-11-21T18:30:57;10.40;99.90
997;DHT22;487;50.126;8.698;2023-11-21T18:33:26;10.30;99.90
997;DHT22;487;50.126;8.698;2023-11-21T18:35:55;10.20;99.90
997;DHT22;487;50.126;8.698;2023-11-21T18:38:23;10.10;99.90
997;DHT22;487;50.126;8.698;2023-11-21T18:40:51;9.90;99.90
997;DHT22;487;50.126;8.698;2023-11-21T18:43:19;9.90;99.90
997;DHT22;487;50.126;8.698;2023-11-21T18:45:46;9.90;99.90
997;DHT22;487;50.126;8.698;2023-11-21T18:48:14;9.80;99.90
997;DHT22;487;50.126;8.698;2023-11-21T18:50:44;9.70;99.90
997;DHT22;487;50.126;8.698;2023-11-21T18:55:41;9.60;99.90
997;DHT22;487;50.126;8.698;2023-11-21T18:58:11;9.60;99.90
997;DHT22;487;50.126;8.698;2023-11-21T19:00:39;9.30;99.90
997;DHT22;487;50.126;8.698;2023-11-21T19:03:07;9.20;99.90
997;DHT22;487;50.126;8.698;2023-11-21T19:05:35;9.00;99.90
997;DHT22;487;50.126;8.698;2023-11-21T19:08:05;8.90;99.90
997;DHT22;487;50.126;8.698;2023-11-21T19:10:33;8.60;99.90
997;DHT22;487;50.126;8.698;2023-11-21T19:13:01;8.60;99.90
997;DHT22;487;50.126;8.698;2023-11-21T19:15:30;8.60;99.90
997;DHT22;487;50.126;8.698;2023-11-21T19:17:57;8.70;99.90
997;DHT22;487;50.126;8.698;2023-11-21T19:20:26;8.60;99.90
997;DHT22;487;50.126;8.698;2023-11-21T19:22:53;8.50;99.90
997;DHT22;487;50.126;8.698;2023-11-21T19:25:23;8.40;99.90
997;DHT22;487;50.126;8.698;2023-11-21T19:27:51;8.50;99.90
997;DHT22;487;50.126;8.698;2023-11-21T19:30:19;8.40;99.90
997;DHT22;487;50.126;8.698;2023-11-21T19:32:47;8.40;99.90
997;DHT22;487;50.126;8.698;2023-11-21T19:35:15;8.40;99.90
997;DHT22;487;50.126;8.698;2023-11-21T19:37:43;8.50;99.90
997;DHT22;487;50.126;8.698;2023-11-21T19:40:12;8.40;99.90
997;DHT22;487;50.126;8.698;2023-11-21T19:42:41;8.40;99.90
997;DHT22;487;50.126;8.698;2023-11-21T19:45:09;8.40;99.90
997;DHT22;487;50.126;8.698;2023-11-21T19:47:38;8.40;99.90
997;DHT22;487;50.126;8.698;2023-11-21T19:50:07;8.40;99.90
997;DHT22;487;50.126;8.698;2023-11-21T19:52:37;8.40;99.90
997;DHT22;487;50.126;8.698;2023-11-21T19:55:05;8.40;99.90
997;DHT22;487;50.126;8.698;2023-11-21T19:57:34;8.40;99.90
997;DHT22;487;50.126;8.698;2023-11-21T20:00:06;8.40;99.90
997;DHT22;487;50.126;8.698;2023-11-21T20:02:37;8.40;99.90
997;DHT22;487;50.126;8.698;2023-11-21T20:05:06;8.40;99.90
997;DHT22;487;50.126;8.698;2023-11-21T20:07:34;8.30;99.90
997;DHT22;487;50.126;8.698;2023-11-21T20:10:02;8.30;99.90
997;DHT22;487;50.126;8.698;2023-11-21T20:12:30;8.30;99.90
997;DHT22;487;50.126;8.698;2023-11-21T20:14:58;8.40;99.90
997;DHT22;487;50.126;8.698;2023-11-21T20:17:28;8.40;99.90
997;DHT22;487;50.126;8.698;2023-11-21T20:19:56;8.30;99.90
997;DHT22;487;50.126;8.698;2023-11-21T20:22:24;8.30;99.90
997;DHT22;487;50.126;8.698;2023-11-21T20:24:52;8.30;99.90
997;DHT22;487;50.126;8.698;2023-11-21T20:27:19;8.30;99.90
997;DHT22;487;50.126;8.698;2023-11-21T20:29:47;8.30;99.90
997;DHT22;487;50.126;8.698;2023-11-21T20:32:15;8.30;99.90
997;DHT22;487;50.126;8.698;2023-11-21T20:34:45;8.30;99.90
997;DHT22;487;50.126;8.698;2023-11-21T20:37:13;8.30;99.90
997;DHT22;487;50.126;8.698;2023-11-21T20:39:41;8.30;99.90
997;DHT22;487;50.126;8.698;2023-11-21T20:42:12;8.20;99.90
997;DHT22;487;50.126;8.698;2023-11-21T20:44:42;8.20;99.90
997;DHT22;487;50.126;8.698;2023-11-21T20:47:09;8.10;99.90
997;DHT22;487;50.126;8.698;2023-11-21T20:49:38;8.10;99.90
997;DHT22;487;50.126;8.698;2023-11-21T20:54:44;8.20;99.90
997;DHT22;487;50.126;8.698;2023-11-21T20:57:12;8.20;99.90
997;DHT22;487;50.126;8.698;2023-11-21T20:59:39;8.20;99.90
997;DHT22;487;50.126;8.698;2023-11-21T21:02:08;8.20;99.90
997;DHT22;487;50.126;8.698;2023-11-21T21:04:36;8.20;99.90
997;DHT22;487;50.126;8.698;2023-11-21T21:07:04;8.30;99.90
997;DHT22;487;50.126;8.698;2023-11-21T21:09:34;8.30;99.90
997;DHT22;487;50.126;8.698;2023-11-21T21:12:04;8.20;99.90
997;DHT22;487;50.126;8.698;2023-11-21T21:14:32;8.20;99.90
997;DHT22;487;50.126;8.698;2023-11-21T21:17:00;8.20;99.90
997;DHT22;487;50.126;8.698;2023-11-21T21:19:28;8.20;99.90
997;DHT22;487;50.126;8.698;2023-11-21T21:21:57;8.20;99.90
997;DHT22;487;50.126;8.698;2023-11-21T21:24:25;8.20;99.90
997;DHT22;487;50.126;8.698;2023-11-21T21:26:54;8.20;99.90
997;DHT22;487;50.126;8.698;2023-11-21T21:29:22;8.00;99.90
997;DHT22;487;50.126;8.698;2023-11-21T21:31:52;8.00;99.90
997;DHT22;487;50.126;8.698;2023-11-21T21:34:20;8.00;99.90
997;DHT22;487;50.126;8.698;2023-11-21T21:36:48;7.90;99.90
997;DHT22;487;50.126;8.698;2023-11-21T21:39:16;7.40;99.90
997;DHT22;487;50.126;8.698;2023-11-21T21:41:46;7.90;99.90
997;DHT22;487;50.126;8.698;2023-11-21T21:44:15;7.90;99.90
997;DHT22;487;50.126;8.698;2023-11-21T21:46:43;7.90;99.90
997;DHT22;487;50.126;8.698;2023-11-21T21:49:11;7.80;99.90